sensor_id;sensor_type;location;lat;lon;timestamp;temperature;humidity
20418;DHT22;10368;51.436;6.774;2022-11-02T00:02:16;13.30;99.90
20418;DHT22;10368;51.436;6.774;2022-11-02T00:04:43;13.30;99.90
20418;DHT22;10368;51.436;6.774;2022-11-02T00:07:10;13.30;99.90
20418;DHT22;10368;51.436;6.774;2022-11-02T00:09:37;13.30;99.90
20418;DHT22;10368;51.436;6.774;2022-11-02T00:12:07;13.30;99.90
20418;DHT22;10368;51.436;6.774;2022-11-02T00:14:34;13.30;99.90
20418;DHT22;10368;51.436;6.774;2022-11-02T00:17:01;13.20;99.90
20418;DHT22;10368;51.436;6.774;2022-11-02T00:19:28;13.10;99.90
20418;DHT22;10368;51.436;6.774;2022-11-02T00:21:55;13.10;99.90
20418;DHT22;10368;51.436;6.774;2022-11-02T00:24:24;13.10;99.90
20418;DHT22;10368;51.436;6.774;2022-11-02T00:26:51;13.20;99.90
20418;DHT22;10368;51.436;6.774;2022-11-02T00:29:19;13.10;99.90
20418;DHT22;10368;51.436;6.774;2022-11-02T00:31:47;13.10;99.90
20418;DHT22;10368;51.436;6.774;2022-11-02T00:34:14;13.10;99.90
20418;DHT22;10368;51.436;6.774;2022-11-02T00:36:40;13.00;99.90
20418;DHT22;10368;51.436;6.774;2022-11-02T00:39:07;13.00;99.90
20418;DHT22;10368;51.436;6.774;2022-11-02T00:41:37;13.10;99.90
20418;DHT22;10368;51.436;6.774;2022-11-02T00:44:04;13.10;99.90
20418;DHT22;10368;51.436;6.774;2022-11-02T00:46:31;13.10;99.90
20418;DHT22;10368;51.436;6.774;2022-11-02T00:48:58;13.10;99.90
20418;DHT22;10368;51.436;6.774;2022-11-02T00:51:25;13.20;99.90
20418;DHT22;10368;51.436;6.774;2022-11-02T00:53:52;13.30;99.90
20418;DHT22;10368;51.436;6.774;2022-11-02T00:56:19;13.30;99.90
20418;DHT22;10368;51.436;6.774;2022-11-02T00:58:45;13.40;99.90
20418;DHT22;10368;51.436;6.774;2022-11-02T01:01:12;13.40;99.90
20418;DHT22;10368;51.436;6.774;2022-11-02T01:03:39;13.50;99.90
20418;DHT22;10368;51.436;6.774;2022-11-02T01:06:11;13.60;99.90
20418;DHT22;10368;51.436;6.774;2022-11-02T01:08:39;13.60;99.90
20418;DHT22;10368;51.436;6.774;2022-11-02T01:11:14;13.60;99.90
20418;DHT22;10368;51.436;6.774;2022-11-02T01:13:42;13.60;99.90
20418;DHT22;10368;51.436;6.774;2022-11-02T01:16:09;13.60;99.90
20418;DHT22;10368;51.436;6.774;2022-11-02T01:18:36;13.60;99.90
20418;DHT22;10368;51.436;6.774;2022-11-02T01:21:04;13.70;99.90
20418;DHT22;10368;51.436;6.774;2022-11-02T01:23:31;13.70;99.90
20418;DHT22;10368;51.436;6.774;2022-11-02T01:26:03;13.70;99.90
20418;DHT22;10368;51.436;6.774;2022-11-02T01:28:30;13.80;99.90
20418;DHT22;10368;51.436;6.774;2022-11-02T01:30:58;13.80;99.90
20418;DHT22;10368;51.436;6.774;2022-11-02T01:33:26;13.90;99.90
20418;DHT22;10368;51.436;6.774;2022-11-02T01:35:53;13.80;99.90
20418;DHT22;10368;51.436;6.774;2022-11-02T01:38:20;13.80;99.90
20418;DHT22;10368;51.436;6.774;2022-11-02T01:40:47;13.80;99.90
20418;DHT22;10368;51.436;6.774;2022-11-02T01:43:23;13.80;99.90
20418;DHT22;10368;51.436;6.774;2022-11-02T01:45:55;13.80;99.90
20418;DHT22;10368;51.436;6.774;2022-11-02T01:48:41;13.80;99.90
20418;DHT22;10368;51.436;6.774;2022-11-02T01:51:15;13.80;99.90
20418;DHT22;10368;51.436;6.774;2022-11-02T01:53:45;13.80;99.90
20418;DHT22;10368;51.436;6.774;2022-11-02T01:56:16;13.80;99.90
20418;DHT22;10368;51.436;6.774;2022-11-02T01:58:45;13.80;99.90
20418;DHT22;10368;51.436;6.774;2022-11-02T02:01:12;13.80;99.90
20418;DHT22;10368;51.436;6.774;2022-11-02T02:03:40;13.80;99.90
20418;DHT22;10368;51.436;6.774;2022-11-02T02:06:11;13.80;99.90
20418;DHT22;10368;51.436;6.774;2022-11-02T02:08:42;13.80;99.90
20418;DHT22;10368;51.436;6.774;2022-11-02T02:11:34;13.80;99.90
20418;DHT22;10368;51.436;6.774;2022-11-02T02:14:05;13.80;99.90
20418;DHT22;10368;51.436;6.774;2022-11-02T02:17:13;13.70;99.90
20418;DHT22;10368;51.436;6.774;2022-11-02T02:37:38;13.60;99.90
20418;DHT22;10368;51.436;6.774;2022-11-02T02:40:20;13.50;99.90
20418;DHT22;10368;51.436;6.774;2022-11-02T02:42:53;13.50;99.90
20418;DHT22;10368;51.436;6.774;2022-11-02T02:45:36;13.60;99.90
20418;DHT22;10368;51.436;6.774;2022-11-02T02:48:29;13.60;99.90
20418;DHT22;10368;51.436;6.774;2022-11-02T02:51:02;13.60;99.90
20418;DHT22;10368;51.436;6.774;2022-11-02T02:53:37;13.60;99.90
20418;DHT22;10368;51.436;6.774;2022-11-02T02:56:06;13.50;99.90
20418;DHT22;10368;51.436;6.774;2022-11-02T02:58:52;13.60;99.90
20418;DHT22;10368;51.436;6.774;2022-11-02T03:01:22;13.60;99.90
20418;DHT22;10368;51.436;6.774;2022-11-02T03:03:50;13.60;99.90
20418;DHT22;10368;51.436;6.774;2022-11-02T03:06:29;13.60;99.90
20418;DHT22;10368;51.436;6.774;2022-11-02T03:11:29;13.60;99.90
20418;DHT22;10368;51.436;6.774;2022-11-02T03:25:29;13.60;99.90
20418;DHT22;10368;51.436;6.774;2022-11-02T03:28:15;13.60;99.90
20418;DHT22;10368;51.436;6.774;2022-11-02T03:30:49;13.60;99.90
20418;DHT22;10368;51.436;6.774;2022-11-02T03:35:55;13.60;99.90
20418;DHT22;10368;51.436;6.774;2022-11-02T03:38:43;13.60;99.90
20418;DHT22;10368;51.436;6.774;2022-11-02T03:41:11;13.50;99.90
20418;DHT22;10368;51.436;6.774;2022-11-02T03:43:40;13.50;99.90
20418;DHT22;10368;51.436;6.774;2022-11-02T03:46:09;13.50;99.90
20418;DHT22;10368;51.436;6.774;2022-11-02T03:48:40;13.50;99.90
20418;DHT22;10368;51.436;6.774;2022-11-02T03:51:11;13.40;99.90
20418;DHT22;10368;51.436;6.774;2022-11-02T03:53:52;13.40;99.90
20418;DHT22;10368;51.436;6.774;2022-11-02T03:56:41;13.40;99.90
20418;DHT22;10368;51.436;6.774;2022-11-02T03:59:09;13.40;99.90
20418;DHT22;10368;51.436;6.774;2022-11-02T04:01:42;13.40;99.90
20418;DHT22;10368;51.436;6.774;2022-11-02T04:04:10;13.30;99.90
20418;DHT22;10368;51.436;6.774;2022-11-02T04:06:38;13.30;99.90
20418;DHT22;10368;51.436;6.774;2022-11-02T04:09:06;13.30;99.90
20418;DHT22;10368;51.436;6.774;2022-11-02T04:11:35;13.30;99.90
20418;DHT22;10368;51.436;6.774;2022-11-02T04:14:20;13.20;99.90
20418;DHT22;10368;51.436;6.774;2022-11-02T04:17:09;13.20;99.90
20418;DHT22;10368;51.436;6.774;2022-11-02T04:19:56;13.20;99.90
20418;DHT22;10368;51.436;6.774;2022-11-02T04:22:23;13.20;99.90
20418;DHT22;10368;51.436;6.774;2022-11-02T04:25:13;13.10;99.90
20418;DHT22;10368;51.436;6.774;2022-11-02T04:27:52;13.10;99.90
20418;DHT22;10368;51.436;6.774;2022-11-02T04:30:21;13.10;99.90
20418;DHT22;10368;51.436;6.774;2022-11-02T04:32:49;13.20;99.90
20418;DHT22;10368;51.436;6.774;2022-11-02T04:35:35;13.20;99.90
20418;DHT22;10368;51.436;6.774;2022-11-02T04:38:05;13.20;99.90
20418;DHT22;10368;51.436;6.774;2022-11-02T04:40:51;13.10;99.90
20418;DHT22;10368;51.436;6.774;2022-11-02T04:43:40;13.10;99.90
20418;DHT22;10368;51.436;6.774;2022-11-02T04:46:07;13.10;99.90
20418;DHT22;10368;51.436;6.774;2022-11-02T04:48:34;13.00;99.90
20418;DHT22;10368;51.436;6.774;2022-11-02T04:51:01;13.00;99.90
20418;DHT22;10368;51.436;6.774;2022-11-02T04:53:28;13.00;99.90
20418;DHT22;10368;51.436;6.774;2022-11-02T04:55:55;13.00;99.90
20418;DHT22;10368;51.436;6.774;2022-11-02T04:58:22;13.10;99.90
20418;DHT22;10368;51.436;6.774;2022-11-02T05:00:48;13.00;99.90
20418;DHT22;10368;51.436;6.774;2022-11-02T05:03:15;13.00;99.90
20418;DHT22;10368;51.436;6.774;2022-11-02T05:05:42;13.00;99.90
20418;DHT22;10368;51.436;6.774;2022-11-02T05:08:09;13.00;99.90
20418;DHT22;10368;51.436;6.774;2022-11-02T05:10:36;13.00;99.90
20418;DHT22;10368;51.436;6.774;2022-11-02T05:13:05;13.00;99.90
20418;DHT22;10368;51.436;6.774;2022-11-02T05:15:32;13.00;99.90
20418;DHT22;10368;51.436;6.774;2022-11-02T05:17:59;13.10;99.90
20418;DHT22;10368;51.436;6.774;2022-11-02T05:20:26;13.10;99.90
20418;DHT22;10368;51.436;6.774;2022-11-02T05:22:53;13.10;99.90
20418;DHT22;10368;51.436;6.774;2022-11-02T05:25:20;13.10;99.90
20418;DHT22;10368;51.436;6.774;2022-11-02T05:27:46;13.00;99.90
20418;DHT22;10368;51.436;6.774;2022-11-02T05:30:13;13.00;99.90
20418;DHT22;10368;51.436;6.774;2022-11-02T12:46:50;13.00;99.90
20418;DHT22;10368;51.436;6.774;2022-11-02T12:54:10;16.20;95.30
20418;DHT22;10368;51.436;6.774;2022-11-02T12:56:53;16.00;96.20
20418;DHT22;10368;51.436;6.774;2022-11-02T13:05:03;15.10;97.60
20418;DHT22;10368;51.436;6.774;2022-11-02T13:07:38;15.00;98.00
20418;DHT22;10368;51.436;6.774;2022-11-02T13:10:27;15.10;97.80
20418;DHT22;10368;51.436;6.774;2022-11-02T13:13:00;15.30;97.80
20418;DHT22;10368;51.436;6.774;2022-11-02T13:15:30;15.40;97.50
20418;DHT22;10368;51.436;6.774;2022-11-02T13:18:05;15.30;97.30
20418;DHT22;10368;51.436;6.774;2022-11-02T13:20:56;15.10;97.40
20418;DHT22;10368;51.436;6.774;2022-11-02T13:23:54;15.30;97.30
20418;DHT22;10368;51.436;6.774;2022-11-02T13:26:35;15.20;97.60
20418;DHT22;10368;51.436;6.774;2022-11-02T13:34:18;15.60;97.40
20418;DHT22;10368;51.436;6.774;2022-11-02T13:39:22;16.90;95.50
20418;DHT22;10368;51.436;6.774;2022-11-02T13:50:32;16.00;97.50
20418;DHT22;10368;51.436;6.774;2022-11-02T13:53:03;15.90;98.00
20418;DHT22;10368;51.436;6.774;2022-11-02T13:58:42;15.70;98.20
20418;DHT22;10368;51.436;6.774;2022-11-02T14:01:16;15.60;98.60
20418;DHT22;10368;51.436;6.774;2022-11-02T14:06:18;15.40;98.70
20418;DHT22;10368;51.436;6.774;2022-11-02T14:08:58;15.50;98.80
20418;DHT22;10368;51.436;6.774;2022-11-02T14:19:30;15.60;98.50
20418;DHT22;10368;51.436;6.774;2022-11-02T14:49:01;15.50;98.20
20418;DHT22;10368;51.436;6.774;2022-11-02T14:51:35;15.50;98.50
20418;DHT22;10368;51.436;6.774;2022-11-02T14:54:16;15.50;98.80
20418;DHT22;10368;51.436;6.774;2022-11-02T14:59:36;15.50;99.30
20418;DHT22;10368;51.436;6.774;2022-11-02T15:04:51;15.20;99.10
20418;DHT22;10368;51.436;6.774;2022-11-02T15:10:06;15.20;99.50
20418;DHT22;10368;51.436;6.774;2022-11-02T15:26:50;14.90;99.90
20418;DHT22;10368;51.436;6.774;2022-11-02T15:29:41;14.90;99.90
20418;DHT22;10368;51.436;6.774;2022-11-02T15:32:18;14.80;99.90
20418;DHT22;10368;51.436;6.774;2022-11-02T15:34:50;14.70;99.90
20418;DHT22;10368;51.436;6.774;2022-11-02T15:39:52;14.60;99.90
20418;DHT22;10368;51.436;6.774;2022-11-02T16:01:19;14.40;99.90
20418;DHT22;10368;51.436;6.774;2022-11-02T16:06:35;14.20;99.90
20418;DHT22;10368;51.436;6.774;2022-11-02T16:09:32;14.20;99.90
20418;DHT22;10368;51.436;6.774;2022-11-02T16:14:29;14.10;99.90
20418;DHT22;10368;51.436;6.774;2022-11-02T16:16:57;14.10;99.90
20418;DHT22;10368;51.436;6.774;2022-11-02T16:19:24;14.00;99.90
20418;DHT22;10368;51.436;6.774;2022-11-02T16:21:51;14.00;99.90
20418;DHT22;10368;51.436;6.774;2022-11-02T16:24:24;14.00;99.90
20418;DHT22;10368;51.436;6.774;2022-11-02T16:26:50;13.90;99.90
20418;DHT22;10368;51.436;6.774;2022-11-02T16:29:29;13.90;99.90
20418;DHT22;10368;51.436;6.774;2022-11-02T16:31:56;13.90;99.90
20418;DHT22;10368;51.436;6.774;2022-11-02T16:34:27;13.90;99.90
20418;DHT22;10368;51.436;6.774;2022-11-02T16:36:56;13.80;99.90
20418;DHT22;10368;51.436;6.774;2022-11-02T16:39:27;13.70;99.90
20418;DHT22;10368;51.436;6.774;2022-11-02T16:41:58;13.70;99.90
20418;DHT22;10368;51.436;6.774;2022-11-02T16:44:30;13.60;99.90
20418;DHT22;10368;51.436;6.774;2022-11-02T16:52:33;13.70;99.90
20418;DHT22;10368;51.436;6.774;2022-11-02T16:55:01;13.60;99.90
20418;DHT22;10368;51.436;6.774;2022-11-02T16:57:32;13.50;99.90
20418;DHT22;10368;51.436;6.774;2022-11-02T17:00:13;13.40;99.90
20418;DHT22;10368;51.436;6.774;2022-11-02T17:02:42;13.40;99.90
20418;DHT22;10368;51.436;6.774;2022-11-02T17:12:51;13.30;99.90
20418;DHT22;10368;51.436;6.774;2022-11-02T17:20:40;13.10;99.90
20418;DHT22;10368;51.436;6.774;2022-11-02T17:23:17;13.00;99.90
20418;DHT22;10368;51.436;6.774;2022-11-02T21:41:35;11.60;99.90
20418;DHT22;10368;51.436;6.774;2022-11-02T21:44:05;11.60;99.90
20418;DHT22;10368;51.436;6.774;2022-11-02T21:46:33;11.60;99.90
20418;DHT22;10368;51.436;6.774;2022-11-02T21:49:00;11.60;99.90
20418;DHT22;10368;51.436;6.774;2022-11-02T21:51:26;11.50;99.90
20418;DHT22;10368;51.436;6.774;2022-11-02T21:53:54;11.60;99.90
20418;DHT22;10368;51.436;6.774;2022-11-02T21:56:24;11.60;99.90
20418;DHT22;10368;51.436;6.774;2022-11-02T21:58:52;11.50;99.90
20418;DHT22;10368;51.436;6.774;2022-11-02T22:01:24;11.60;99.90
20418;DHT22;10368;51.436;6.774;2022-11-02T22:06:40;11.50;99.90
20418;DHT22;10368;51.436;6.774;2022-11-02T22:09:10;11.60;99.90
20418;DHT22;10368;51.436;6.774;2022-11-02T22:11:37;11.60;99.90
20418;DHT22;10368;51.436;6.774;2022-11-02T22:14:05;11.60;99.90
20418;DHT22;10368;51.436;6.774;2022-11-02T22:16:34;11.60;99.90
20418;DHT22;10368;51.436;6.774;2022-11-02T22:19:04;11.60;99.90
20418;DHT22;10368;51.436;6.774;2022-11-02T22:21:34;11.60;99.90
20418;DHT22;10368;51.436;6.774;2022-11-02T22:24:02;11.70;99.90
20418;DHT22;10368;51.436;6.774;2022-11-02T22:26:30;11.70;99.90
20418;DHT22;10368;51.436;6.774;2022-11-02T22:29:00;11.70;99.90
20418;DHT22;10368;51.436;6.774;2022-11-02T22:31:29;11.80;99.90
20418;DHT22;10368;51.436;6.774;2022-11-02T22:33:58;11.80;99.90
20418;DHT22;10368;51.436;6.774;2022-11-02T22:36:27;11.70;99.90
20418;DHT22;10368;51.436;6.774;2022-11-02T22:38:55;11.70;99.90
20418;DHT22;10368;51.436;6.774;2022-11-02T22:41:33;11.80;99.90
20418;DHT22;10368;51.436;6.774;2022-11-02T22:44:03;11.80;99.90
20418;DHT22;10368;51.436;6.774;2022-11-02T22:46:32;11.80;99.90
20418;DHT22;10368;51.436;6.774;2022-11-02T22:49:01;11.80;99.90
20418;DHT22;10368;51.436;6.774;2022-11-02T22:51:34;11.80;99.90
20418;DHT22;10368;51.436;6.774;2022-11-02T22:54:03;11.80;99.90
20418;DHT22;10368;51.436;6.774;2022-11-02T22:56:31;11.80;99.90
20418;DHT22;10368;51.436;6.774;2022-11-02T22:58:58;11.90;99.90
20418;DHT22;10368;51.436;6.774;2022-11-02T23:01:26;11.90;99.90
20418;DHT22;10368;51.436;6.774;2022-11-02T23:03:54;11.90;99.90
20418;DHT22;10368;51.436;6.774;2022-11-02T23:06:22;11.80;99.90
20418;DHT22;10368;51.436;6.774;2022-11-02T23:08:51;11.80;99.90
20418;DHT22;10368;51.436;6.774;2022-11-02T23:11:27;11.90;99.90
20418;DHT22;10368;51.436;6.774;2022-11-02T23:14:09;11.80;99.90
20418;DHT22;10368;51.436;6.774;2022-11-02T23:16:39;11.80;99.90
20418;DHT22;10368;51.436;6.774;2022-11-02T23:19:13;11.80;99.90
20418;DHT22;10368;51.436;6.774;2022-11-02T23:22:08;11.80;99.90
20418;DHT22;10368;51.436;6.774;2022-11-02T23:24:59;11.80;99.90
20418;DHT22;10368;51.436;6.774;2022-11-02T23:27:56;11.80;99.90
20418;DHT22;10368;51.436;6.774;2022-11-02T23:30:42;11.90;99.90
20418;DHT22;10368;51.436;6.774;2022-11-02T23:33:33;11.90;99.90
20418;DHT22;10368;51.436;6.774;2022-11-02T23:36:02;11.90;99.90
20418;DHT22;10368;51.436;6.774;2022-11-02T23:38:43;11.90;99.90
20418;DHT22;10368;51.436;6.774;2022-11-02T23:41:31;11.90;99.90
20418;DHT22;10368;51.436;6.774;2022-11-02T23:43:59;11.80;99.90
20418;DHT22;10368;51.436;6.774;2022-11-02T23:46:40;11.90;99.90
20418;DHT22;10368;51.436;6.774;2022-11-02T23:49:07;11.80;99.90
20418;DHT22;10368;51.436;6.774;2022-11-02T23:51:34;11.80;99.90
20418;DHT22;10368;51.436;6.774;2022-11-02T23:54:20;11.80;99.90
20418;DHT22;10368;51.436;6.774;2022-11-02T23:57:05;11.90;99.90
20418;DHT22;10368;51.436;6.774;2022-11-02T23:59:32;11.90;99.90
